Terminal Aerodrome Forecast
Issued by NWS Central Illinois

Home | Current Version | Previous Version | Text Only | Print | Product List | Glossary On
Versions: 1 2 3 4 5 6 7 8 9 10 11 12 13 14 15 16 17
000
FTUS43 KILX 312339
TAFSPI
TAF
KSPI 312339Z 0100/0124 13008KT P6SM FEW100
     FM010600 16005KT P6SM SCT050 BKN100
     FM011300 23004KT P6SM VCTS SCT050CB BKN100
     FM012000 26006KT P6SM SCT060 BKN100=

USA.gov is the U.S. government's official web portal to all federal, state and local government web resources and services.